createdAt,value
2018-12-18T00:01:22.098Z,90.10
2018-12-18T00:03:52.969Z,90.10
2018-12-18T00:06:21.624Z,89.80
2018-12-18T00:08:51.089Z,90.10
2018-12-18T00:11:20.073Z,90.20
2018-12-18T00:13:49.106Z,90.10
2018-12-18T00:16:18.550Z,90.30
2018-12-18T00:18:47.839Z,90.30
2018-12-18T00:21:16.609Z,90.40
2018-12-18T00:23:46.120Z,90.40
2018-12-18T00:26:14.815Z,90.60
2018-12-18T00:28:43.840Z,90.70
2018-12-18T00:31:12.852Z,90.80
2018-12-18T00:33:46.045Z,90.70
2018-12-18T00:36:13.986Z,90.40
2018-12-18T00:38:43.001Z,90.60
2018-12-18T00:41:11.748Z,90.80
2018-12-18T00:43:40.488Z,91.00
2018-12-18T00:46:09.128Z,91.60
2018-12-18T00:48:37.970Z,91.60
2018-12-18T00:51:06.900Z,91.70
2018-12-18T00:53:35.954Z,91.80
2018-12-18T00:56:04.557Z,91.90
2018-12-18T00:58:33.249Z,92.20
2018-12-18T01:01:02.534Z,92.30
2018-12-18T01:03:31.248Z,92.10
2018-12-18T01:06:00.433Z,92.10
2018-12-18T01:08:29.075Z,91.80
2018-12-18T01:10:58.088Z,92.00
2018-12-18T01:13:26.881Z,91.90
2018-12-18T01:15:56.438Z,92.50
2018-12-18T01:18:25.127Z,92.70
2018-12-18T01:20:54.298Z,92.80
2018-12-18T01:23:23.792Z,92.70
2018-12-18T01:25:53.316Z,92.70
2018-12-18T01:28:21.901Z,92.70
2018-12-18T01:30:50.545Z,92.50
2018-12-18T01:33:19.969Z,92.30
2018-12-18T01:35:48.774Z,92.30
2018-12-18T01:38:17.560Z,92.40
2018-12-18T01:40:46.486Z,92.50
2018-12-18T01:43:16.290Z,92.70
2018-12-18T01:45:45.599Z,92.70
2018-12-18T01:48:15.199Z,92.90
2018-12-18T01:50:44.389Z,93.00
2018-12-18T01:53:13.823Z,93.20
2018-12-18T01:55:42.724Z,93.30
2018-12-18T01:58:11.571Z,93.30
2018-12-18T02:00:41.112Z,93.50
2018-12-18T02:03:10.469Z,93.00
2018-12-18T02:05:40.237Z,93.40
2018-12-18T02:08:09.498Z,93.20
2018-12-18T02:10:39.220Z,93.70
2018-12-18T02:13:08.844Z,93.60
2018-12-18T02:15:38.318Z,93.50
2018-12-18T02:18:07.857Z,93.50
2018-12-18T02:20:36.723Z,93.90
2018-12-18T02:23:05.848Z,94.00
2018-12-18T02:25:34.565Z,94.10
2018-12-18T02:28:03.947Z,93.90
2018-12-18T02:30:33.166Z,94.20
2018-12-18T02:33:01.992Z,94.10
2018-12-18T02:35:31.728Z,94.30
2018-12-18T02:38:01.171Z,94.40
2018-12-18T02:40:30.843Z,93.80
2018-12-18T02:43:00.248Z,93.90
2018-12-18T02:45:29.847Z,94.10
2018-12-18T02:47:58.778Z,94.40
2018-12-18T02:50:27.600Z,94.50
2018-12-18T02:52:56.427Z,94.60
2018-12-18T02:55:25.043Z,94.90
2018-12-18T02:57:53.920Z,95.10
2018-12-18T03:00:22.647Z,94.80
2018-12-18T03:02:51.911Z,94.60
2018-12-18T03:05:21.535Z,94.40
2018-12-18T03:07:50.649Z,94.40
2018-12-18T03:10:19.418Z,94.30
2018-12-18T03:12:48.187Z,94.50
2018-12-18T03:15:17.051Z,94.60
2018-12-18T03:17:46.212Z,94.70
2018-12-18T03:20:15.154Z,94.30
2018-12-18T03:22:43.797Z,94.30
2018-12-18T03:25:13.509Z,94.50
2018-12-18T03:27:42.893Z,94.70
2018-12-18T03:30:11.816Z,94.70
2018-12-18T03:32:48.770Z,94.50
2018-12-18T03:35:17.569Z,94.40
2018-12-18T03:37:46.344Z,94.30
2018-12-18T03:40:15.876Z,94.20
2018-12-18T03:42:44.754Z,94.10
2018-12-18T03:45:13.449Z,93.80
2018-12-18T03:47:42.843Z,93.90
2018-12-18T03:50:11.875Z,93.80
2018-12-18T03:52:40.927Z,93.90
2018-12-18T03:55:10.664Z,93.70
2018-12-18T03:57:39.964Z,93.70
2018-12-18T04:00:11.506Z,93.80
2018-12-18T04:02:41.008Z,94.20
2018-12-18T04:05:09.778Z,94.50
2018-12-18T04:07:38.614Z,94.50
2018-12-18T04:10:14.070Z,94.50
2018-12-18T04:12:42.662Z,94.70
2018-12-18T04:15:11.552Z,94.70
2018-12-18T04:17:40.280Z,94.40
2018-12-18T04:20:09.106Z,94.50
2018-12-18T04:22:38.491Z,94.40
2018-12-18T04:25:07.140Z,94.30
2018-12-18T04:27:36.393Z,94.20
2018-12-18T04:30:06.117Z,94.30
2018-12-18T04:32:35.331Z,94.50
2018-12-18T04:35:05.602Z,94.80
2018-12-18T04:37:34.304Z,94.70
2018-12-18T04:40:03.607Z,94.40
2018-12-18T04:42:32.512Z,94.50
2018-12-18T04:45:02.243Z,94.80
2018-12-18T04:47:31.052Z,94.60
2018-12-18T04:49:59.859Z,94.40
2018-12-18T04:52:28.621Z,94.70
2018-12-18T04:54:57.304Z,94.60
2018-12-18T04:57:26.578Z,94.70
2018-12-18T04:59:55.389Z,94.60
2018-12-18T05:02:25.202Z,94.70
2018-12-18T05:04:54.669Z,94.70
2018-12-18T05:07:24.064Z,94.30
2018-12-18T05:09:53.546Z,94.00
2018-12-18T05:12:23.189Z,94.00
2018-12-18T05:14:52.605Z,94.00
2018-12-18T05:17:21.346Z,94.00
2018-12-18T05:19:50.911Z,94.00
2018-12-18T05:22:20.352Z,94.00
2018-12-18T05:24:49.067Z,94.10
2018-12-18T05:27:17.856Z,94.10
2018-12-18T05:29:47.572Z,94.20
2018-12-18T05:32:16.255Z,94.30
2018-12-18T05:34:45.996Z,94.40
2018-12-18T05:37:15.526Z,94.20
2018-12-18T05:39:45.569Z,94.10
2018-12-18T05:42:14.438Z,94.40
2018-12-18T05:44:43.625Z,94.40
2018-12-18T05:47:12.550Z,94.40
2018-12-18T05:49:41.876Z,94.50
2018-12-18T05:52:11.312Z,94.60
2018-12-18T05:54:40.145Z,94.60
2018-12-18T05:57:09.118Z,94.40
2018-12-18T05:59:37.942Z,94.40
2018-12-18T06:02:06.875Z,94.40
2018-12-18T06:04:35.616Z,94.70
2018-12-18T06:07:05.354Z,95.00
2018-12-18T06:09:34.749Z,94.80
2018-12-18T06:12:04.287Z,94.80
2018-12-18T06:14:33.819Z,94.70
2018-12-18T06:17:03.596Z,94.70
2018-12-18T06:19:32.837Z,94.80
2018-12-18T06:22:01.760Z,94.80
2018-12-18T06:24:31.088Z,94.80
2018-12-18T06:27:00.232Z,94.60
2018-12-18T06:29:29.079Z,94.90
2018-12-18T06:31:58.511Z,94.40
2018-12-18T06:34:27.332Z,94.50
2018-12-18T06:36:56.290Z,94.40
2018-12-18T06:39:25.031Z,94.40
2018-12-18T06:41:53.642Z,94.50
2018-12-18T06:44:22.444Z,94.30
2018-12-18T06:46:51.017Z,94.50
2018-12-18T06:49:19.907Z,94.40
2018-12-18T06:51:48.815Z,94.40
2018-12-18T06:54:17.658Z,94.90
2018-12-18T06:56:46.514Z,94.60
2018-12-18T06:59:15.952Z,94.50
2018-12-18T07:01:45.042Z,94.60
2018-12-18T07:04:14.415Z,94.70
2018-12-18T07:06:43.348Z,94.70
2018-12-18T07:09:11.964Z,94.60
2018-12-18T07:11:41.756Z,94.50
2018-12-18T07:14:11.261Z,94.40
2018-12-18T07:16:40.863Z,94.40
2018-12-18T07:19:10.019Z,94.40
2018-12-18T07:21:38.995Z,94.20
2018-12-18T07:24:13.880Z,94.00
2018-12-18T07:26:38.554Z,93.80
2018-12-18T07:29:07.725Z,93.80
2018-12-18T07:31:37.061Z,93.60
2018-12-18T07:34:06.608Z,93.50
2018-12-18T07:36:36.208Z,93.70
2018-12-18T07:39:07.711Z,94.40
2018-12-18T07:41:37.334Z,95.90
2018-12-18T07:44:06.050Z,93.20
2018-12-18T07:46:34.641Z,93.10
2018-12-18T07:49:05.028Z,93.40
2018-12-18T07:51:34.440Z,93.40
2018-12-18T07:54:03.928Z,93.20
2018-12-18T07:56:32.855Z,93.10
2018-12-18T07:59:01.584Z,93.20
2018-12-18T08:01:31.135Z,93.20
2018-12-18T08:04:00.012Z,93.00
2018-12-18T08:06:28.961Z,93.10
2018-12-18T08:08:58.455Z,93.00
2018-12-18T08:11:27.372Z,92.80
2018-12-18T08:13:56.403Z,93.20
2018-12-18T08:16:26.264Z,92.60
2018-12-18T08:18:55.597Z,92.40
2018-12-18T08:21:24.586Z,92.40
2018-12-18T08:23:53.554Z,92.20
2018-12-18T08:26:23.201Z,92.40
2018-12-18T08:28:53.685Z,92.30
2018-12-18T08:31:22.772Z,92.30
2018-12-18T08:33:51.726Z,92.10
2018-12-18T08:36:20.480Z,92.00
2018-12-18T08:38:49.531Z,92.10
2018-12-18T08:41:19.438Z,92.20
2018-12-18T08:43:48.516Z,92.10
2018-12-18T08:46:17.402Z,92.00
2018-12-18T08:48:45.974Z,91.50
2018-12-18T08:51:15.726Z,91.60
2018-12-18T08:53:44.366Z,91.60
2018-12-18T08:56:13.793Z,91.90
2018-12-18T08:58:43.276Z,91.60
2018-12-18T09:01:13.064Z,91.60
2018-12-18T09:03:43.136Z,91.40
2018-12-18T09:06:12.116Z,91.10
2018-12-18T09:08:41.397Z,91.20
2018-12-18T09:11:10.840Z,91.10
2018-12-18T09:13:39.725Z,91.00
2018-12-18T09:16:12.510Z,91.10
2018-12-18T09:18:41.103Z,91.30
2018-12-18T09:21:09.986Z,91.20
2018-12-18T09:23:38.523Z,91.30
2018-12-18T09:26:07.439Z,91.30
2018-12-18T09:28:36.261Z,91.40
2018-12-18T09:31:05.160Z,91.30
2018-12-18T09:33:33.798Z,91.30
2018-12-18T09:36:02.581Z,91.00
2018-12-18T09:38:36.620Z,91.00
2018-12-18T09:41:11.267Z,91.00
2018-12-18T09:43:45.060Z,91.20
2018-12-18T09:46:14.266Z,90.90
2018-12-18T09:48:42.906Z,91.30
2018-12-18T09:51:11.714Z,91.30
2018-12-18T09:53:40.287Z,91.10
2018-12-18T09:56:09.539Z,91.20
2018-12-18T09:58:39.025Z,91.30
2018-12-18T10:01:08.055Z,91.50
2018-12-18T10:03:37.203Z,91.40
2018-12-18T10:06:05.733Z,91.60
2018-12-18T10:08:35.228Z,91.30
2018-12-18T10:11:04.543Z,91.50
2018-12-18T10:13:33.972Z,91.40
2018-12-18T10:16:03.241Z,90.80
2018-12-18T10:18:32.578Z,90.90
2018-12-18T10:21:01.943Z,91.00
2018-12-18T10:23:30.646Z,91.20
2018-12-18T10:25:59.334Z,90.90
2018-12-18T10:28:28.824Z,91.10
2018-12-18T10:30:58.692Z,91.30
2018-12-18T10:33:28.168Z,91.00
2018-12-18T10:36:02.827Z,90.90
2018-12-18T10:38:29.243Z,90.90
2018-12-18T10:40:58.046Z,90.90
2018-12-18T10:43:27.245Z,91.10
2018-12-18T10:45:56.223Z,91.00
2018-12-18T10:48:25.231Z,91.20
2018-12-18T10:50:53.902Z,91.50
2018-12-18T10:53:23.164Z,91.10
2018-12-18T10:55:52.048Z,90.60
2018-12-18T10:58:24.016Z,90.30
2018-12-18T11:00:57.100Z,90.20
2018-12-18T11:03:25.827Z,90.20
2018-12-18T11:05:55.329Z,90.30
2018-12-18T11:08:25.077Z,90.40
2018-12-18T11:10:53.750Z,90.40
2018-12-18T11:13:22.844Z,90.80
2018-12-18T11:15:51.528Z,90.30
2018-12-18T11:18:20.934Z,89.90
2018-12-18T11:20:49.497Z,90.00
2018-12-18T11:23:19.733Z,90.20
2018-12-18T11:25:48.559Z,90.00
2018-12-18T11:28:17.578Z,89.70
2018-12-18T11:30:47.073Z,89.80
2018-12-18T11:33:15.876Z,88.90
2018-12-18T11:35:44.896Z,88.10
2018-12-18T11:38:13.530Z,88.00
2018-12-18T11:40:42.103Z,88.40
2018-12-18T11:43:11.054Z,87.90
2018-12-18T11:45:39.968Z,88.20
2018-12-18T11:48:08.939Z,88.00
2018-12-18T11:50:37.592Z,88.50
2018-12-18T11:53:06.810Z,88.20
2018-12-18T11:55:36.217Z,87.60
2018-12-18T11:58:05.681Z,86.90
2018-12-18T12:00:34.467Z,86.50
2018-12-18T12:03:03.765Z,86.70
2018-12-18T12:05:32.470Z,85.60
2018-12-18T12:08:01.789Z,84.70
2018-12-18T12:10:30.493Z,85.50
2018-12-18T12:12:59.086Z,86.30
2018-12-18T12:15:28.305Z,85.90
2018-12-18T12:17:57.949Z,86.40
2018-12-18T12:20:27.830Z,86.00
2018-12-18T12:22:56.596Z,86.90
2018-12-18T12:25:25.895Z,87.00
2018-12-18T12:27:59.969Z,86.60
2018-12-18T12:30:29.014Z,87.40
2018-12-18T12:32:58.510Z,87.60
2018-12-18T12:35:28.174Z,87.20
2018-12-18T12:37:57.272Z,87.50
2018-12-18T12:40:25.942Z,87.60
2018-12-18T12:42:55.488Z,87.90
2018-12-18T12:45:25.054Z,87.90
2018-12-18T12:47:56.611Z,87.80
2018-12-18T12:50:25.214Z,87.40
2018-12-18T12:52:53.956Z,87.90
2018-12-18T12:55:23.913Z,88.10
2018-12-18T12:57:53.154Z,88.60
2018-12-18T13:00:22.396Z,88.70
2018-12-18T13:02:51.268Z,88.80
2018-12-18T13:05:20.339Z,89.10
2018-12-18T13:07:49.437Z,89.50
2018-12-18T13:10:18.058Z,89.20
2018-12-18T13:12:46.679Z,89.30
2018-12-18T13:15:15.509Z,89.50
2018-12-18T13:17:45.059Z,89.70
2018-12-18T13:20:14.110Z,89.00
2018-12-18T13:22:44.172Z,89.00
2018-12-18T13:25:13.643Z,89.20
2018-12-18T13:27:43.286Z,89.10
2018-12-18T13:30:12.150Z,89.80
2018-12-18T13:32:41.344Z,90.10
2018-12-18T13:35:10.913Z,90.20
2018-12-18T13:37:40.455Z,90.60
2018-12-18T13:40:10.074Z,90.60
2018-12-18T13:42:39.535Z,90.20
2018-12-18T13:45:09.064Z,90.20
2018-12-18T13:47:37.765Z,90.30
2018-12-18T13:50:07.116Z,90.50
2018-12-18T13:52:35.677Z,90.80
2018-12-18T13:55:05.069Z,90.80
2018-12-18T13:57:34.583Z,90.80
2018-12-18T14:00:03.825Z,90.70
2018-12-18T14:02:33.787Z,90.70
2018-12-18T14:05:02.632Z,90.90
2018-12-18T14:07:31.987Z,90.80
2018-12-18T14:10:00.688Z,90.70
2018-12-18T14:12:30.248Z,90.80
2018-12-18T14:14:58.992Z,90.90
2018-12-18T14:17:27.967Z,90.90
2018-12-18T14:19:56.751Z,90.80
2018-12-18T14:22:26.378Z,90.90
2018-12-18T14:24:55.225Z,90.90
2018-12-18T14:27:24.188Z,90.90
2018-12-18T14:29:54.141Z,91.00
2018-12-18T14:32:23.522Z,90.90
2018-12-18T14:34:52.304Z,90.90
2018-12-18T14:37:20.911Z,90.90
2018-12-18T14:39:50.093Z,90.80
2018-12-18T14:42:19.392Z,90.90
2018-12-18T14:44:48.308Z,91.30
2018-12-18T14:47:17.272Z,91.20
2018-12-18T14:49:45.977Z,91.20
2018-12-18T14:52:14.675Z,91.30
2018-12-18T14:54:43.653Z,91.20
2018-12-18T14:57:12.447Z,91.10
2018-12-18T14:59:41.655Z,91.10
2018-12-18T15:02:10.847Z,91.10
2018-12-18T15:04:39.801Z,91.10
2018-12-18T15:07:08.640Z,91.30
2018-12-18T15:09:38.084Z,91.30
2018-12-18T15:12:07.105Z,91.30
2018-12-18T15:14:36.008Z,91.40
2018-12-18T15:17:04.595Z,91.30
2018-12-18T15:19:33.417Z,91.10
2018-12-18T15:22:02.611Z,91.20
2018-12-18T15:24:32.156Z,91.10
2018-12-18T15:27:01.855Z,91.00
2018-12-18T15:29:30.877Z,91.10
2018-12-18T15:31:59.560Z,91.20
2018-12-18T15:34:28.143Z,91.30
2018-12-18T15:36:57.113Z,91.20
2018-12-18T15:39:26.598Z,91.20
2018-12-18T15:41:56.284Z,91.30
2018-12-18T15:44:25.856Z,91.00
2018-12-18T15:46:55.305Z,91.10
2018-12-18T15:49:25.030Z,91.00
2018-12-18T15:51:54.192Z,91.00
2018-12-18T15:54:26.872Z,91.00
2018-12-18T15:56:56.459Z,90.90
2018-12-18T15:59:25.388Z,91.00
2018-12-18T16:01:54.358Z,91.10
2018-12-18T16:04:23.232Z,91.10
2018-12-18T16:06:52.424Z,91.40
2018-12-18T16:09:21.216Z,91.50
2018-12-18T16:11:51.921Z,91.40
2018-12-18T16:14:22.207Z,91.30
2018-12-18T16:16:50.983Z,91.10
2018-12-18T16:19:20.413Z,91.10
2018-12-18T16:21:49.591Z,91.00
2018-12-18T16:24:19.272Z,90.90
2018-12-18T16:26:48.716Z,91.10
2018-12-18T16:29:17.443Z,91.20
2018-12-18T16:31:47.017Z,90.70
2018-12-18T16:34:16.418Z,90.70
2018-12-18T16:36:45.233Z,90.80
2018-12-18T16:39:14.186Z,91.00
2018-12-18T16:41:43.320Z,90.80
2018-12-18T16:44:12.596Z,90.40
2018-12-18T16:46:42.204Z,90.40
2018-12-18T16:49:11.665Z,90.50
2018-12-18T16:51:40.945Z,90.70
2018-12-18T16:54:09.606Z,90.80
2018-12-18T16:56:38.689Z,90.60
2018-12-18T16:59:08.184Z,90.60
2018-12-18T17:01:37.459Z,90.50
2018-12-18T17:04:06.386Z,90.40
2018-12-18T17:06:35.002Z,90.20
2018-12-18T17:09:06.514Z,90.30
2018-12-18T17:11:35.369Z,90.40
2018-12-18T17:14:04.146Z,90.30
2018-12-18T17:16:32.897Z,90.20
2018-12-18T17:19:01.614Z,90.20
2018-12-18T17:21:30.557Z,90.20
2018-12-18T17:24:00.038Z,90.10
2018-12-18T17:26:29.674Z,90.10
2018-12-18T17:28:58.366Z,90.00
2018-12-18T17:31:27.216Z,90.20
2018-12-18T17:33:56.328Z,90.60
2018-12-18T17:36:25.096Z,90.70
2018-12-18T17:38:53.796Z,90.70
2018-12-18T17:41:22.917Z,90.60
2018-12-18T17:43:52.822Z,90.70
2018-12-18T17:46:22.828Z,91.00
2018-12-18T17:48:52.583Z,91.10
2018-12-18T17:51:25.601Z,91.10
2018-12-18T17:53:54.441Z,90.70
2018-12-18T17:56:23.206Z,90.70
2018-12-18T17:58:52.790Z,90.70
2018-12-18T18:01:22.236Z,90.60
2018-12-18T18:03:51.271Z,90.80
2018-12-18T18:06:20.437Z,91.10
2018-12-18T18:08:49.696Z,91.10
2018-12-18T18:11:19.650Z,91.10
2018-12-18T18:13:48.680Z,91.30
2018-12-18T18:16:24.169Z,91.40
2018-12-18T18:18:52.973Z,91.40
2018-12-18T18:21:22.156Z,91.50
2018-12-18T18:23:51.088Z,91.60
2018-12-18T18:26:21.485Z,91.70
2018-12-18T18:28:50.214Z,91.60
2018-12-18T18:31:19.485Z,91.50
2018-12-18T18:33:48.441Z,91.50
2018-12-18T18:36:18.470Z,91.50
2018-12-18T18:38:47.865Z,91.60
2018-12-18T18:41:16.650Z,91.80
2018-12-18T18:43:45.923Z,91.80
2018-12-18T18:46:14.839Z,91.90
2018-12-18T18:48:44.175Z,91.70
2018-12-18T18:51:20.390Z,91.70
2018-12-18T18:53:49.629Z,91.50
2018-12-18T18:56:19.498Z,91.50
2018-12-18T18:58:49.160Z,91.20
2018-12-18T19:01:17.762Z,91.50
2018-12-18T19:03:46.999Z,91.50
2018-12-18T19:06:16.542Z,91.30
2018-12-18T19:08:46.187Z,91.10
2018-12-18T19:11:15.293Z,90.80
2018-12-18T19:13:44.932Z,90.70
2018-12-18T19:16:13.630Z,90.60
2018-12-18T19:18:42.830Z,90.40
2018-12-18T19:21:11.549Z,90.50
2018-12-18T19:23:40.215Z,90.50
2018-12-18T19:26:09.151Z,90.40
2018-12-18T19:28:38.478Z,90.50
2018-12-18T19:31:08.049Z,90.30
2018-12-18T19:33:37.513Z,90.20
2018-12-18T19:36:06.822Z,90.20
2018-12-18T19:38:36.479Z,90.20
2018-12-18T19:41:05.054Z,90.10
2018-12-18T19:43:34.223Z,90.00
2018-12-18T19:46:03.186Z,90.00
2018-12-18T19:48:33.020Z,90.00
2018-12-18T19:51:02.382Z,90.20
2018-12-18T19:53:31.926Z,90.20
2018-12-18T19:56:00.675Z,90.00
2018-12-18T19:58:30.017Z,89.70
2018-12-18T20:00:59.391Z,89.50
2018-12-18T20:03:28.629Z,89.70
2018-12-18T20:05:57.921Z,90.00
2018-12-18T20:08:27.722Z,90.20
2018-12-18T20:10:57.000Z,90.40
2018-12-18T20:13:26.230Z,90.40
2018-12-18T20:15:55.111Z,90.10
2018-12-18T20:18:23.910Z,90.20
2018-12-18T20:20:52.625Z,90.30
2018-12-18T20:23:21.705Z,90.30
2018-12-18T20:25:51.203Z,90.40
2018-12-18T20:28:20.675Z,90.60
2018-12-18T20:30:50.497Z,90.40
2018-12-18T20:33:20.141Z,90.30
2018-12-18T20:35:49.381Z,90.30
2018-12-18T20:38:18.337Z,90.30
2018-12-18T20:40:47.504Z,90.50
2018-12-18T20:43:17.285Z,90.50
2018-12-18T20:45:47.548Z,90.60
2018-12-18T20:48:16.533Z,90.50
2018-12-18T20:50:45.771Z,90.70
2018-12-18T20:53:14.560Z,91.00
2018-12-18T20:55:44.005Z,90.90
2018-12-18T20:58:12.782Z,90.90
2018-12-18T21:00:41.517Z,91.00
2018-12-18T21:03:10.272Z,91.00
2018-12-18T21:05:38.871Z,91.20
2018-12-18T21:08:08.161Z,91.20
2018-12-18T21:10:37.044Z,91.20
2018-12-18T21:13:11.712Z,91.20
2018-12-18T21:15:40.899Z,91.10
2018-12-18T21:18:10.046Z,91.10
2018-12-18T21:20:38.974Z,91.10
2018-12-18T21:23:07.704Z,91.00
2018-12-18T21:25:36.817Z,91.00
2018-12-18T21:28:05.728Z,91.10
2018-12-18T21:30:35.491Z,91.00
2018-12-18T21:33:04.485Z,90.90
2018-12-18T21:35:33.319Z,91.10
2018-12-18T21:38:02.112Z,91.40
2018-12-18T21:40:30.917Z,91.20
2018-12-18T21:43:00.046Z,91.20
2018-12-18T21:45:29.515Z,91.30
2018-12-18T21:47:59.180Z,91.50
2018-12-18T21:50:28.438Z,91.70
2018-12-18T21:52:57.350Z,91.60
2018-12-18T21:55:27.665Z,91.50
2018-12-18T21:57:57.494Z,91.50
2018-12-18T22:00:27.089Z,91.70
2018-12-18T22:02:55.833Z,91.80
2018-12-18T22:05:24.597Z,91.80
2018-12-18T22:07:53.616Z,91.80
2018-12-18T22:10:23.239Z,92.10
2018-12-18T22:12:52.018Z,91.80
2018-12-18T22:15:20.824Z,91.70
2018-12-18T22:17:49.619Z,91.70
2018-12-18T22:20:18.616Z,92.00
2018-12-18T22:22:48.986Z,91.60
2018-12-18T22:25:18.212Z,91.50
2018-12-18T22:27:47.341Z,91.60
2018-12-18T22:30:16.921Z,91.70
2018-12-18T22:32:46.079Z,91.70
2018-12-18T22:35:14.911Z,91.60
2018-12-18T22:37:43.892Z,91.60
2018-12-18T22:40:13.333Z,91.60
2018-12-18T22:42:42.274Z,91.70
2018-12-18T22:45:10.958Z,92.00
2018-12-18T22:47:40.179Z,91.70
2018-12-18T22:50:09.906Z,91.90
2018-12-18T22:52:38.650Z,92.10
2018-12-18T22:55:08.040Z,91.90
2018-12-18T22:57:37.896Z,92.30
2018-12-18T23:00:08.120Z,92.30
2018-12-18T23:02:36.971Z,92.30
2018-12-18T23:05:08.306Z,92.20
2018-12-18T23:07:37.195Z,92.10
2018-12-18T23:10:06.437Z,92.20
2018-12-18T23:12:35.939Z,92.10
2018-12-18T23:15:05.208Z,91.80
2018-12-18T23:17:33.845Z,91.90
2018-12-18T23:20:03.738Z,92.00
2018-12-18T23:22:33.077Z,91.90
2018-12-18T23:25:01.868Z,91.80
2018-12-18T23:27:31.134Z,91.80
2018-12-18T23:30:00.585Z,91.80
2018-12-18T23:32:30.384Z,91.70
2018-12-18T23:34:59.804Z,91.50
2018-12-18T23:37:29.482Z,91.30
2018-12-18T23:39:58.419Z,91.30
2018-12-18T23:42:27.313Z,91.20
2018-12-18T23:44:57.263Z,91.10
2018-12-18T23:47:26.156Z,91.20
2018-12-18T23:49:54.966Z,91.00
2018-12-18T23:52:24.843Z,90.90
2018-12-18T23:54:54.159Z,91.10
2018-12-18T23:57:23.815Z,90.90
2018-12-18T23:59:52.565Z,90.80
